createdAt,value
2023-03-13T00:00:53.008Z,79.53
2023-03-13T00:01:53.110Z,79.19
2023-03-13T00:02:52.951Z,78.54
2023-03-13T00:03:52.961Z,78.13
2023-03-13T00:04:53.090Z,77.97
2023-03-13T00:05:52.926Z,78.48
2023-03-13T00:06:52.933Z,78.88
2023-03-13T00:07:52.919Z,78.78
2023-03-13T00:08:52.900Z,78.68
2023-03-13T00:09:52.881Z,79.33
2023-03-13T00:10:52.875Z,78.88
2023-03-13T00:11:52.903Z,78.54
2023-03-13T00:12:52.845Z,78.13
2023-03-13T00:13:52.859Z,78.03
2023-03-13T00:14:52.833Z,78.03
2023-03-13T00:15:52.893Z,77.83
2023-03-13T00:16:52.829Z,78.23
2023-03-13T00:17:52.774Z,78.78
2023-03-13T00:18:52.811Z,79.19
2023-03-13T00:19:52.748Z,78.58
2023-03-13T00:20:52.759Z,79.09
2023-03-13T00:21:52.758Z,79.09
2023-03-13T00:22:52.720Z,78.88
2023-03-13T00:23:52.715Z,78.99
2023-03-13T00:24:52.726Z,79.19
2023-03-13T00:25:52.708Z,79.19
2023-03-13T00:26:52.680Z,78.58
2023-03-13T00:27:52.661Z,79.53
2023-03-13T00:28:52.660Z,79.39
2023-03-13T00:29:52.668Z,80.05
2023-03-13T00:30:52.676Z,79.60
2023-03-13T00:31:52.643Z,78.99
2023-03-13T00:32:52.638Z,78.75
2023-03-13T00:33:52.638Z,78.58
2023-03-13T00:34:52.577Z,79.53
2023-03-13T00:35:52.616Z,80.35
2023-03-13T00:36:52.551Z,79.91
2023-03-13T00:37:52.659Z,79.84
2023-03-13T00:38:52.530Z,79.94
2023-03-13T00:39:52.533Z,79.94
2023-03-13T00:40:52.514Z,80.56
2023-03-13T00:41:52.562Z,80.52
2023-03-13T00:42:52.509Z,79.39
2023-03-13T00:43:52.478Z,79.80
2023-03-13T00:44:52.482Z,79.60
2023-03-13T00:45:52.512Z,79.19
2023-03-13T00:46:52.442Z,79.05
2023-03-13T00:47:52.469Z,78.54
2023-03-13T00:48:52.430Z,79.09
2023-03-13T00:49:52.402Z,79.60
2023-03-13T00:50:52.392Z,79.29
2023-03-13T00:51:52.389Z,79.80
2023-03-13T00:52:52.374Z,80.21
2023-03-13T00:53:52.402Z,79.57
2023-03-13T00:54:52.380Z,79.05
2023-03-13T00:55:52.382Z,78.64
2023-03-13T00:56:52.333Z,79.05
2023-03-13T00:57:52.322Z,79.05
2023-03-13T00:58:52.346Z,79.09
2023-03-13T00:59:52.333Z,79.60
2023-03-13T01:00:52.278Z,79.36
2023-03-13T01:01:52.261Z,79.25
2023-03-13T01:02:52.372Z,78.95
2023-03-13T01:03:52.245Z,78.64
2023-03-13T01:04:52.274Z,78.75
2023-03-13T01:05:52.233Z,78.54
2023-03-13T01:06:52.214Z,79.57
2023-03-13T01:07:52.205Z,79.25
2023-03-13T01:08:52.198Z,79.02
2023-03-13T01:09:52.200Z,78.64
2023-03-13T01:10:52.289Z,79.16
2023-03-13T01:11:52.197Z,79.25
2023-03-13T01:12:52.157Z,79.16
2023-03-13T01:13:52.143Z,78.85
2023-03-13T01:14:52.174Z,79.16
2023-03-13T01:15:52.209Z,78.95
2023-03-13T01:16:52.152Z,78.81
2023-03-13T01:17:52.139Z,79.36
2023-03-13T01:18:52.099Z,79.91
2023-03-13T01:19:52.075Z,80.11
2023-03-13T01:20:52.078Z,79.60
2023-03-13T01:21:52.122Z,79.80
2023-03-13T01:22:52.120Z,79.97
2023-03-13T01:23:52.025Z,79.57
2023-03-13T01:24:52.015Z,79.87
2023-03-13T01:25:52.023Z,79.50
2023-03-13T01:26:51.993Z,79.36
2023-03-13T01:27:51.990Z,79.25
2023-03-13T01:28:51.988Z,79.66
2023-03-13T01:29:51.968Z,79.60
2023-03-13T01:30:52.001Z,79.77
2023-03-13T01:31:51.939Z,79.36
2023-03-13T01:32:51.964Z,79.25
2023-03-13T01:33:51.929Z,79.25
2023-03-13T01:34:51.935Z,78.95
2023-03-13T01:35:51.927Z,79.25
2023-03-13T01:36:51.906Z,79.16
2023-03-13T01:37:51.867Z,79.87
2023-03-13T01:38:51.858Z,79.66
2023-03-13T01:39:51.850Z,79.36
2023-03-13T01:40:51.855Z,79.46
2023-03-13T01:41:51.845Z,80.07
2023-03-13T01:42:51.821Z,79.46
2023-03-13T01:43:51.805Z,79.46
2023-03-13T01:44:51.805Z,79.57
2023-03-13T01:45:51.827Z,79.57
2023-03-13T01:46:51.860Z,79.46
2023-03-13T01:47:51.819Z,79.46
2023-03-13T01:48:51.766Z,79.80
2023-03-13T01:49:51.729Z,80.18
2023-03-13T01:50:51.730Z,79.66
2023-03-13T01:51:51.733Z,79.87
2023-03-13T01:52:51.701Z,80.42
2023-03-13T01:53:51.707Z,80.62
2023-03-13T01:54:51.725Z,80.18
2023-03-13T01:55:51.679Z,79.87
2023-03-13T01:56:51.853Z,80.18
2023-03-13T01:57:51.639Z,79.87
2023-03-13T01:58:51.625Z,79.87
2023-03-13T01:59:51.623Z,79.66
2023-03-13T02:00:51.603Z,79.87
2023-03-13T02:01:51.634Z,79.77
2023-03-13T02:02:51.810Z,79.32
2023-03-13T02:03:51.598Z,79.57
2023-03-13T02:04:51.551Z,79.46
2023-03-13T02:05:51.544Z,79.66
2023-03-13T02:06:51.544Z,79.57
2023-03-13T02:07:51.541Z,79.97
2023-03-13T02:08:51.568Z,79.97
2023-03-13T02:09:51.517Z,79.77
2023-03-13T02:10:51.482Z,79.22
2023-03-13T02:11:51.493Z,78.37
2023-03-13T02:12:51.516Z,77.86
2023-03-13T02:13:51.462Z,78.67
2023-03-13T02:14:51.493Z,78.91
2023-03-13T02:15:51.487Z,79.22
2023-03-13T02:16:51.423Z,78.98
2023-03-13T02:17:51.424Z,79.08
2023-03-13T02:18:51.390Z,78.88
2023-03-13T02:19:51.380Z,79.93
2023-03-13T02:20:51.390Z,80.24
2023-03-13T02:21:51.398Z,80.96
2023-03-13T02:22:51.332Z,80.96
2023-03-13T02:23:51.321Z,80.82
2023-03-13T02:24:51.320Z,80.61
2023-03-13T02:25:51.315Z,80.85
2023-03-13T02:26:51.335Z,82.08
2023-03-13T02:27:51.282Z,81.87
2023-03-13T02:28:51.272Z,81.98
2023-03-13T02:29:51.272Z,82.83
2023-03-13T02:30:51.251Z,82.93
2023-03-13T02:31:51.297Z,82.73
2023-03-13T02:32:51.352Z,83.38
2023-03-13T02:33:51.210Z,84.47
2023-03-13T02:34:51.201Z,84.26
2023-03-13T02:35:51.269Z,83.71
2023-03-13T02:36:51.184Z,83.20
2023-03-13T02:37:51.172Z,83.54
2023-03-13T02:38:51.204Z,83.92
2023-03-13T02:39:51.153Z,84.01
2023-03-13T02:40:51.134Z,84.47
2023-03-13T02:41:51.127Z,84.98
2023-03-13T02:42:51.108Z,84.42
2023-03-13T02:43:51.113Z,84.67
2023-03-13T02:44:51.119Z,85.22
2023-03-13T02:45:51.079Z,85.97
2023-03-13T02:46:51.103Z,88.12
2023-03-13T02:47:51.059Z,87.67
2023-03-13T02:48:51.076Z,86.96
2023-03-13T02:49:51.160Z,86.85
2023-03-13T02:50:51.028Z,87.51
2023-03-13T02:51:51.009Z,87.57
2023-03-13T02:52:51.026Z,87.30
2023-03-13T02:53:51.168Z,88.33
2023-03-13T02:54:50.988Z,88.39
2023-03-13T02:55:50.983Z,87.92
2023-03-13T02:56:50.950Z,89.50
2023-03-13T02:57:50.963Z,89.25
2023-03-13T02:58:50.929Z,89.15
2023-03-13T02:59:50.932Z,89.76
2023-03-13T03:00:50.939Z,89.76
2023-03-13T03:01:50.926Z,89.00
2023-03-13T03:02:50.898Z,88.90
2023-03-13T03:03:50.894Z,89.20
2023-03-13T03:04:50.865Z,88.49
2023-03-13T03:05:50.860Z,88.59
2023-03-13T03:06:50.873Z,87.98
2023-03-13T03:07:50.836Z,88.59
2023-03-13T03:08:50.838Z,88.70
2023-03-13T03:09:50.805Z,88.23
2023-03-13T03:10:50.800Z,89.86
2023-03-13T03:11:50.789Z,89.76
2023-03-13T03:12:50.836Z,90.27
2023-03-13T03:13:50.755Z,89.72
2023-03-13T03:14:50.758Z,90.11
2023-03-13T03:15:50.740Z,91.23
2023-03-13T03:16:50.810Z,92.46
2023-03-13T03:17:50.723Z,91.80
2023-03-13T03:18:50.748Z,91.50
2023-03-13T03:19:50.688Z,90.78
2023-03-13T03:20:50.694Z,91.54
2023-03-13T03:21:50.669Z,91.91
2023-03-13T03:22:50.674Z,91.39
2023-03-13T03:23:50.643Z,90.58
2023-03-13T03:24:50.653Z,90.88
2023-03-13T03:25:50.625Z,90.92
2023-03-13T03:26:50.611Z,92.81
2023-03-13T03:27:50.603Z,92.87
2023-03-13T03:28:50.603Z,93.52
2023-03-13T03:29:50.615Z,93.32
2023-03-13T03:30:50.577Z,94.10
2023-03-13T03:31:50.580Z,93.38
2023-03-13T03:32:50.572Z,92.52
2023-03-13T03:33:50.558Z,91.60
2023-03-13T03:34:50.512Z,91.50
2023-03-13T03:35:50.992Z,92.11
2023-03-13T03:36:50.492Z,91.91
2023-03-13T03:37:50.479Z,91.25
2023-03-13T03:38:50.497Z,91.15
2023-03-13T03:39:50.460Z,90.74
2023-03-13T03:40:50.452Z,90.17
2023-03-13T03:41:50.472Z,90.68
2023-03-13T03:42:50.503Z,91.54
2023-03-13T03:43:50.465Z,92.05
2023-03-13T03:44:50.390Z,92.25
2023-03-13T03:45:50.416Z,92.05
2023-03-13T03:46:50.612Z,92.36
2023-03-13T03:47:50.600Z,92.25
2023-03-13T03:48:50.369Z,92.66
2023-03-13T03:49:50.364Z,92.25
2023-03-13T03:50:50.339Z,92.93
2023-03-13T03:51:50.332Z,92.15
2023-03-13T03:52:50.327Z,93.01
2023-03-13T03:53:50.323Z,93.59
2023-03-13T03:54:50.296Z,93.32
2023-03-13T03:55:50.285Z,93.89
2023-03-13T03:56:50.266Z,93.69
2023-03-13T03:57:50.255Z,93.44
2023-03-13T03:58:50.251Z,92.62
2023-03-13T03:59:50.257Z,92.83
2023-03-13T04:00:50.244Z,92.62
2023-03-13T04:01:50.260Z,91.91
2023-03-13T04:02:50.200Z,92.56
2023-03-13T04:03:50.191Z,93.18
2023-03-13T04:04:50.178Z,93.18
2023-03-13T04:05:50.226Z,93.59
2023-03-13T04:06:50.161Z,93.48
2023-03-13T04:07:50.150Z,93.07
2023-03-13T04:08:50.139Z,94.20
2023-03-13T04:09:50.134Z,94.60
2023-03-13T04:10:50.110Z,93.13
2023-03-13T04:11:50.144Z,93.24
2023-03-13T04:12:50.090Z,92.93
2023-03-13T04:13:50.099Z,92.47
2023-03-13T04:14:50.070Z,91.56
2023-03-13T04:15:50.075Z,92.72
2023-03-13T04:16:50.169Z,92.27
2023-03-13T04:17:50.043Z,91.80
2023-03-13T04:18:50.016Z,92.62
2023-03-13T04:19:50.020Z,93.03
2023-03-13T04:20:49.999Z,92.07
2023-03-13T04:21:49.986Z,92.21
2023-03-13T04:22:50.022Z,93.03
2023-03-13T04:23:49.969Z,92.99
2023-03-13T04:24:49.974Z,92.93
2023-03-13T04:25:49.944Z,92.58
2023-03-13T04:26:49.976Z,92.58
2023-03-13T04:27:49.923Z,91.66
2023-03-13T04:28:49.980Z,92.07
2023-03-13T04:29:49.895Z,92.93
2023-03-13T04:30:49.932Z,92.99
2023-03-13T04:31:49.868Z,92.11
2023-03-13T04:32:49.933Z,92.99
2023-03-13T04:33:49.863Z,93.44
2023-03-13T04:34:49.986Z,94.92
2023-03-13T04:35:49.860Z,94.40
2023-03-13T04:36:49.805Z,94.46
2023-03-13T04:37:49.807Z,94.67
2023-03-13T04:38:49.786Z,94.36
2023-03-13T04:39:49.789Z,94.42
2023-03-13T04:40:49.805Z,94.11
2023-03-13T04:41:49.758Z,93.09
2023-03-13T04:42:49.746Z,92.88
2023-03-13T04:43:49.841Z,93.85
2023-03-13T04:44:49.782Z,93.70
2023-03-13T04:45:49.780Z,93.91
2023-03-13T04:46:49.722Z,93.74
2023-03-13T04:47:49.699Z,93.40
2023-03-13T04:48:49.679Z,93.91
2023-03-13T04:49:49.660Z,93.91
2023-03-13T04:50:49.681Z,93.80
2023-03-13T04:51:49.688Z,94.01
2023-03-13T04:52:49.774Z,93.74
2023-03-13T04:53:49.619Z,95.07
2023-03-13T04:54:49.615Z,95.38
2023-03-13T04:55:49.593Z,96.66
2023-03-13T04:56:49.580Z,95.89
2023-03-13T04:57:49.592Z,96.51
2023-03-13T04:58:49.578Z,95.95
2023-03-13T04:59:49.559Z,95.07
2023-03-13T05:00:49.541Z,95.54
2023-03-13T05:01:49.555Z,94.62
2023-03-13T05:02:49.558Z,94.82
2023-03-13T05:03:49.538Z,94.01
2023-03-13T05:04:52.064Z,95.12
2023-03-13T05:05:49.490Z,96.81
2023-03-13T05:06:49.497Z,96.30
2023-03-13T05:07:49.457Z,96.30
2023-03-13T05:08:49.495Z,96.36
2023-03-13T05:09:49.447Z,95.34
2023-03-13T05:10:49.421Z,96.34
2023-03-13T05:11:49.424Z,97.42
2023-03-13T05:12:49.427Z,97.78
2023-03-13T05:13:49.382Z,97.22
2023-03-13T05:14:49.408Z,97.47
2023-03-13T05:15:49.451Z,98.60
2023-03-13T05:16:49.384Z,98.45
2023-03-13T05:17:49.358Z,98.04
2023-03-13T05:18:49.346Z,97.63
2023-03-13T05:19:49.355Z,96.56
2023-03-13T05:20:49.466Z,97.17
2023-03-13T05:21:49.304Z,96.05
2023-03-13T05:22:49.283Z,95.34
2023-03-13T05:23:49.314Z,95.64
2023-03-13T05:24:49.353Z,96.36
2023-03-13T05:25:49.291Z,97.38
2023-03-13T05:26:49.248Z,96.56
2023-03-13T05:27:49.238Z,97.12
2023-03-13T05:28:49.234Z,98.35
2023-03-13T05:29:49.195Z,98.10
2023-03-13T05:30:49.250Z,97.42
2023-03-13T05:31:49.221Z,97.38
2023-03-13T05:32:49.187Z,96.46
2023-03-13T05:33:49.164Z,98.04
2023-03-13T05:34:49.147Z,99.02
2023-03-13T05:35:49.206Z,98.10
2023-03-13T05:36:49.116Z,97.58
2023-03-13T05:37:49.619Z,97.69
2023-03-13T05:38:49.127Z,97.13
2023-03-13T05:39:49.083Z,96.21
2023-03-13T05:40:49.087Z,95.95
2023-03-13T05:41:49.058Z,96.83
2023-03-13T05:42:49.054Z,96.11
2023-03-13T05:43:49.106Z,96.11
2023-03-13T05:44:49.028Z,96.31
2023-03-13T05:45:49.038Z,96.01
2023-03-13T05:46:49.085Z,96.31
2023-03-13T05:47:49.004Z,97.33
2023-03-13T05:48:49.016Z,97.13
2023-03-13T05:49:48.990Z,97.13
2023-03-13T05:50:49.015Z,96.83
2023-03-13T05:51:48.968Z,97.85
2023-03-13T05:52:48.948Z,97.24
2023-03-13T05:53:48.920Z,97.85
2023-03-13T05:54:48.945Z,97.85
2023-03-13T05:55:48.922Z,98.36
2023-03-13T05:56:48.907Z,97.54
2023-03-13T05:57:48.965Z,97.44
2023-03-13T05:58:48.855Z,97.44
2023-03-13T05:59:48.853Z,97.54
2023-03-13T06:00:48.906Z,98.36
2023-03-13T06:01:48.828Z,99.68
2023-03-13T06:02:48.806Z,99.79
2023-03-13T06:03:48.945Z,99.38
2023-03-13T06:04:48.918Z,99.54
2023-03-13T06:05:48.783Z,98.72
2023-03-13T06:06:48.804Z,99.02
2023-03-13T06:07:48.765Z,97.55
2023-03-13T06:08:48.793Z,97.80
2023-03-13T06:09:48.743Z,99.18
2023-03-13T06:10:48.752Z,99.99
2023-03-13T06:11:48.735Z,99.99
2023-03-13T06:12:48.780Z,99.99
2023-03-13T06:13:48.707Z,99.99
2023-03-13T06:14:48.678Z,99.99
2023-03-13T06:15:48.826Z,99.99
2023-03-13T06:16:48.683Z,99.29
2023-03-13T06:17:48.702Z,99.64
2023-03-13T06:18:48.699Z,99.99
2023-03-13T06:19:48.629Z,99.99
2023-03-13T06:20:48.599Z,99.99
2023-03-13T06:21:48.590Z,99.99
2023-03-13T06:22:48.652Z,99.90
2023-03-13T06:23:48.579Z,99.90
2023-03-13T06:24:48.583Z,99.99
2023-03-13T06:25:48.572Z,99.99
2023-03-13T06:26:49.624Z,99.99
2023-03-13T06:27:48.556Z,99.99
2023-03-13T06:28:48.498Z,99.69
2023-03-13T06:29:48.501Z,99.99
2023-03-13T06:30:48.576Z,99.99
2023-03-13T06:31:48.587Z,99.99
2023-03-13T06:32:48.543Z,99.99
2023-03-13T06:33:49.748Z,99.99
2023-03-13T06:34:48.461Z,99.99
2023-03-13T06:35:56.257Z,99.99
2023-03-13T06:36:49.453Z,99.99
2023-03-13T06:37:48.400Z,99.99
2023-03-13T06:38:48.381Z,99.99
2023-03-13T06:39:48.403Z,99.99
2023-03-13T06:40:48.363Z,99.65
2023-03-13T06:41:48.372Z,99.99
2023-03-13T06:42:48.453Z,99.99
2023-03-13T06:43:48.327Z,99.14
2023-03-13T06:44:48.319Z,99.40
2023-03-13T06:45:48.348Z,98.27
2023-03-13T06:46:48.333Z,99.14
2023-03-13T06:47:48.281Z,99.99
2023-03-13T06:48:48.359Z,99.60
2023-03-13T06:49:48.326Z,99.04
2023-03-13T06:50:48.250Z,98.02
2023-03-13T06:51:48.241Z,97.97
2023-03-13T06:52:48.241Z,98.99
2023-03-13T06:53:48.265Z,99.99
2023-03-13T06:54:48.210Z,99.99
2023-03-13T06:55:48.227Z,98.68
2023-03-13T06:56:48.183Z,99.19
2023-03-13T06:57:48.166Z,99.99
2023-03-13T06:58:48.151Z,99.99
2023-03-13T06:59:48.182Z,99.99
2023-03-13T07:00:48.143Z,99.96
2023-03-13T07:01:48.128Z,99.55
2023-03-13T07:02:48.112Z,99.99
2023-03-13T07:03:48.324Z,98.74
2023-03-13T07:04:48.085Z,99.55
2023-03-13T07:05:48.132Z,98.94
2023-03-13T07:06:48.085Z,98.94
2023-03-13T07:07:48.059Z,99.96
2023-03-13T07:08:48.057Z,99.99
2023-03-13T07:09:48.030Z,99.96
2023-03-13T07:10:48.060Z,99.76
2023-03-13T07:11:48.015Z,99.25
2023-03-13T07:12:48.000Z,99.41
2023-03-13T07:13:47.993Z,98.90
2023-03-13T07:14:47.972Z,97.98
2023-03-13T07:15:47.950Z,98.74
2023-03-13T07:16:48.090Z,99.99
2023-03-13T07:17:47.930Z,99.61
2023-03-13T07:18:47.928Z,99.20
2023-03-13T07:19:47.912Z,98.54
2023-03-13T07:20:47.904Z,96.71
2023-03-13T07:21:47.987Z,96.51
2023-03-13T07:22:47.905Z,97.93
2023-03-13T07:23:47.872Z,98.14
2023-03-13T07:24:48.005Z,96.61
2023-03-13T07:25:47.863Z,97.22
2023-03-13T07:27:03.470Z,97.38
2023-03-13T07:27:48.861Z,96.06
2023-03-13T07:28:47.837Z,96.71
2023-03-13T07:29:47.812Z,97.22
2023-03-13T07:30:47.786Z,98.09
2023-03-13T07:31:47.801Z,97.42
2023-03-13T07:32:47.865Z,96.97
2023-03-13T07:33:47.786Z,96.36
2023-03-13T07:34:47.744Z,97.48
2023-03-13T07:35:47.749Z,95.95
2023-03-13T07:36:47.712Z,97.38
2023-03-13T07:37:47.715Z,97.58
2023-03-13T07:38:47.697Z,97.07
2023-03-13T07:39:47.764Z,97.48
2023-03-13T07:40:47.665Z,98.19
2023-03-13T07:41:47.657Z,97.64
2023-03-13T07:42:47.651Z,96.01
2023-03-13T07:43:47.659Z,95.09
2023-03-13T07:44:47.616Z,95.91
2023-03-13T07:45:47.695Z,95.81
2023-03-13T07:46:47.606Z,95.70
2023-03-13T07:47:47.608Z,95.70
2023-03-13T07:48:47.576Z,96.22
2023-03-13T07:49:47.557Z,95.97
2023-03-13T07:50:47.547Z,93.83
2023-03-13T07:51:47.603Z,94.34
2023-03-13T07:52:47.550Z,95.05
2023-03-13T07:53:47.532Z,94.54
2023-03-13T07:54:47.497Z,94.95
2023-03-13T07:55:47.487Z,95.70
2023-03-13T07:56:47.502Z,95.72
2023-03-13T07:57:47.534Z,94.20
2023-03-13T07:58:47.473Z,94.13
2023-03-13T07:59:47.449Z,95.66
2023-03-13T08:00:47.499Z,94.50
2023-03-13T08:01:47.491Z,93.89
2023-03-13T08:02:47.420Z,94.20
2023-03-13T08:03:47.515Z,93.33
2023-03-13T08:04:47.433Z,93.24
2023-03-13T08:05:47.469Z,93.95
2023-03-13T08:06:47.380Z,92.83
2023-03-13T08:07:47.361Z,93.54
2023-03-13T08:08:47.345Z,93.09
2023-03-13T08:09:47.419Z,91.87
2023-03-13T08:10:47.320Z,94.05
2023-03-13T08:11:47.309Z,93.33
2023-03-13T08:12:47.304Z,94.05
2023-03-13T08:13:47.279Z,93.74
2023-03-13T08:14:47.326Z,93.13
2023-03-13T08:15:47.278Z,93.95
2023-03-13T08:16:47.322Z,93.40
2023-03-13T08:17:47.245Z,92.89
2023-03-13T08:18:47.329Z,92.68
2023-03-13T08:19:47.213Z,93.24
2023-03-13T08:20:47.247Z,94.31
2023-03-13T08:21:47.179Z,92.54
2023-03-13T08:22:47.177Z,91.22
2023-03-13T08:23:47.157Z,91.12
2023-03-13T08:24:47.148Z,91.63
2023-03-13T08:25:47.144Z,92.33
2023-03-13T08:26:47.158Z,90.51
2023-03-13T08:27:47.127Z,92.18
2023-03-13T08:28:47.112Z,91.52
2023-03-13T08:29:47.087Z,91.22
2023-03-13T08:30:47.152Z,91.73
2023-03-13T08:31:47.097Z,91.32
2023-03-13T08:32:47.099Z,91.73
2023-03-13T08:33:47.060Z,90.77
2023-03-13T08:34:47.037Z,90.42
2023-03-13T08:35:47.079Z,89.55
2023-03-13T08:36:47.019Z,90.36
2023-03-13T08:37:47.029Z,91.48
2023-03-13T08:38:47.021Z,90.62
2023-03-13T08:39:46.990Z,91.12
2023-03-13T08:40:46.972Z,91.68
2023-03-13T08:41:46.965Z,92.13
2023-03-13T08:42:46.950Z,91.68
2023-03-13T08:43:47.003Z,90.36
2023-03-13T08:44:46.919Z,89.72
2023-03-13T08:45:46.959Z,89.21
2023-03-13T08:46:46.918Z,89.01
2023-03-13T08:47:46.887Z,90.12
2023-03-13T08:48:46.888Z,89.41
2023-03-13T08:49:46.882Z,89.92
2023-03-13T08:50:46.905Z,89.61
2023-03-13T08:51:46.852Z,89.06
2023-03-13T08:52:46.825Z,89.72
2023-03-13T08:53:46.818Z,90.02
2023-03-13T08:54:46.827Z,90.42
2023-03-13T08:55:46.810Z,89.67
2023-03-13T08:56:46.812Z,89.17
2023-03-13T08:57:46.788Z,88.21
2023-03-13T08:58:46.757Z,88.15
2023-03-13T08:59:46.748Z,89.72
2023-03-13T09:00:46.868Z,89.92
2023-03-13T09:01:46.743Z,90.88
2023-03-13T09:02:46.794Z,90.32
2023-03-13T09:03:46.824Z,90.32
2023-03-13T09:04:46.699Z,90.22
2023-03-13T09:06:47.746Z,90.16
2023-03-13T09:07:46.652Z,89.86
2023-03-13T09:08:46.649Z,90.88
2023-03-13T09:09:46.654Z,90.58
2023-03-13T09:10:46.625Z,89.17
2023-03-13T09:11:46.605Z,89.02
2023-03-13T09:12:46.634Z,88.51
2023-03-13T09:13:46.595Z,88.01
2023-03-13T09:14:46.564Z,88.42
2023-03-13T09:15:46.632Z,87.81
2023-03-13T09:16:46.543Z,87.71
2023-03-13T09:17:46.556Z,87.20
2023-03-13T09:18:46.591Z,86.96
2023-03-13T09:19:59.445Z,86.35
2023-03-13T09:20:48.998Z,86.85
2023-03-13T09:21:46.535Z,86.25
2023-03-13T09:22:46.484Z,86.55
2023-03-13T09:23:46.505Z,86.71
2023-03-13T09:24:46.548Z,85.50
2023-03-13T09:25:46.444Z,86.21
2023-03-13T09:27:00.171Z,85.86
2023-03-13T09:27:47.429Z,84.95
2023-03-13T09:28:46.416Z,84.95
2023-03-13T09:29:46.409Z,83.90
2023-03-13T09:30:46.476Z,82.55
2023-03-13T09:31:46.424Z,83.86
2023-03-13T09:32:46.384Z,82.35
2023-03-13T09:33:46.366Z,82.35
2023-03-13T09:34:46.362Z,82.39
2023-03-13T09:35:46.338Z,83.68
2023-03-13T09:36:46.383Z,84.20
2023-03-13T09:37:46.307Z,82.85
2023-03-13T09:38:46.297Z,83.56
2023-03-13T09:39:46.330Z,82.31
2023-03-13T09:40:59.795Z,81.76
2023-03-13T09:41:47.287Z,82.31
2023-03-13T09:42:46.274Z,82.31
2023-03-13T09:43:46.255Z,81.44
2023-03-13T09:44:46.219Z,83.15
2023-03-13T09:45:46.209Z,83.29
2023-03-13T09:46:46.326Z,82.95
2023-03-13T09:47:46.210Z,83.19
2023-03-13T09:48:46.177Z,83.46
2023-03-13T09:49:46.169Z,82.41
2023-03-13T09:50:47.532Z,82.45
2023-03-13T09:51:46.150Z,82.99
2023-03-13T09:52:46.164Z,83.80
2023-03-13T09:53:46.122Z,83.44
2023-03-13T09:54:46.125Z,84.34
2023-03-13T09:55:46.104Z,83.50
2023-03-13T09:56:46.085Z,83.60
2023-03-13T09:57:46.106Z,83.15
2023-03-13T09:58:46.076Z,82.65
2023-03-13T09:59:46.064Z,82.61
2023-03-13T10:00:46.022Z,82.04
2023-03-13T10:01:46.050Z,82.10
2023-03-13T10:02:46.022Z,81.90
2023-03-13T10:03:46.048Z,82.28
2023-03-13T10:04:46.048Z,82.79
2023-03-13T10:05:45.969Z,83.80
2023-03-13T10:06:45.988Z,83.19
2023-03-13T10:07:45.942Z,84.25
2023-03-13T10:08:45.961Z,84.11
2023-03-13T10:09:45.950Z,83.36
2023-03-13T10:10:45.911Z,82.41
2023-03-13T10:11:45.930Z,81.96
2023-03-13T10:12:45.878Z,82.35
2023-03-13T10:13:45.887Z,83.36
2023-03-13T10:14:45.858Z,83.29
2023-03-13T10:15:45.934Z,82.95
2023-03-13T10:16:45.835Z,82.95
2023-03-13T10:17:45.870Z,82.45
2023-03-13T10:18:45.811Z,82.95
2023-03-13T10:19:45.812Z,82.71
2023-03-13T10:20:45.793Z,81.76
2023-03-13T10:21:45.815Z,81.46
2023-03-13T10:22:45.777Z,80.72
2023-03-13T10:23:45.778Z,81.20
2023-03-13T10:24:45.762Z,81.90
2023-03-13T10:25:45.731Z,82.45
2023-03-13T10:26:45.727Z,81.56
2023-03-13T10:27:45.821Z,81.40
2023-03-13T10:28:45.702Z,82.69
2023-03-13T10:29:45.689Z,83.64
2023-03-13T10:30:45.682Z,84.41
2023-03-13T10:31:45.716Z,83.90
2023-03-13T10:32:45.707Z,83.76
2023-03-13T10:33:45.630Z,83.05
2023-03-13T10:34:45.645Z,82.33
2023-03-13T10:35:45.628Z,81.46
2023-03-13T10:36:45.593Z,82.21
2023-03-13T10:37:45.588Z,81.87
2023-03-13T10:38:45.647Z,82.01
2023-03-13T10:39:45.568Z,82.04
2023-03-13T10:40:45.554Z,82.45
2023-03-13T10:41:45.535Z,83.36
2023-03-13T10:42:45.546Z,83.80
2023-03-13T10:43:45.505Z,83.01
2023-03-13T10:44:45.531Z,82.75
2023-03-13T10:45:45.498Z,82.69
2023-03-13T10:46:45.575Z,83.60
2023-03-13T10:47:45.523Z,82.75
2023-03-13T10:48:45.466Z,83.01
2023-03-13T10:49:45.486Z,83.15
2023-03-13T10:50:45.450Z,83.90
2023-03-13T10:51:45.407Z,83.46
2023-03-13T10:52:45.452Z,83.15
2023-03-13T10:53:45.429Z,82.81
2023-03-13T10:54:45.389Z,82.41
2023-03-13T10:55:45.401Z,82.91
2023-03-13T10:56:45.361Z,82.95
2023-03-13T10:57:45.401Z,83.56
2023-03-13T10:58:45.361Z,82.75
2023-03-13T10:59:45.319Z,83.26
2023-03-13T11:00:45.311Z,83.40
2023-03-13T11:01:45.322Z,84.51
2023-03-13T11:02:45.360Z,84.71
2023-03-13T11:03:45.311Z,83.76
2023-03-13T11:04:45.255Z,84.06
2023-03-13T11:05:45.285Z,83.36
2023-03-13T11:06:45.262Z,84.17
2023-03-13T11:07:45.240Z,84.12
2023-03-13T11:08:45.348Z,83.90
2023-03-13T11:09:45.203Z,83.86
2023-03-13T11:10:45.191Z,84.37
2023-03-13T11:11:45.218Z,84.31
2023-03-13T11:12:45.184Z,85.08
2023-03-13T11:13:45.164Z,83.72
2023-03-13T11:14:45.160Z,83.72
2023-03-13T11:15:45.165Z,83.68
2023-03-13T11:16:45.143Z,82.81
2023-03-13T11:17:45.138Z,83.12
2023-03-13T11:18:45.141Z,83.80
2023-03-13T11:19:45.085Z,83.72
2023-03-13T11:20:45.137Z,83.32
2023-03-13T11:21:45.066Z,83.32
2023-03-13T11:22:45.044Z,82.57
2023-03-13T11:23:45.037Z,82.85
2023-03-13T11:24:45.067Z,82.91
2023-03-13T11:25:45.006Z,83.12
2023-03-13T11:26:55.148Z,83.70
2023-03-13T11:27:45.993Z,84.47
2023-03-13T11:28:44.982Z,84.67
2023-03-13T11:29:45.058Z,83.86
2023-03-13T11:30:44.992Z,83.56
2023-03-13T11:31:45.039Z,84.17
2023-03-13T11:32:44.966Z,85.11
2023-03-13T11:33:44.936Z,85.96
2023-03-13T11:34:44.919Z,85.86
2023-03-13T11:35:44.987Z,86.27
2023-03-13T11:36:44.972Z,86.43
2023-03-13T11:37:44.869Z,85.38
2023-03-13T11:38:44.868Z,85.36
2023-03-13T11:39:44.976Z,86.47
2023-03-13T11:40:44.828Z,86.37
2023-03-13T11:41:44.890Z,86.98
2023-03-13T11:42:44.942Z,86.73
2023-03-13T11:43:44.783Z,86.37
2023-03-13T11:44:44.781Z,86.43
2023-03-13T11:45:44.833Z,86.02
2023-03-13T11:46:44.983Z,86.87
2023-03-13T11:47:44.750Z,87.38
2023-03-13T11:48:44.897Z,87.58
2023-03-13T11:49:44.761Z,87.18
2023-03-13T11:50:44.776Z,86.69
2023-03-13T11:51:44.721Z,86.53
2023-03-13T11:52:44.735Z,86.73
2023-03-13T11:53:44.689Z,86.39
2023-03-13T11:54:44.678Z,86.63
2023-03-13T11:55:44.651Z,87.79
2023-03-13T11:56:44.647Z,87.95
2023-03-13T11:57:44.624Z,87.64
2023-03-13T11:58:44.635Z,86.19
2023-03-13T11:59:44.655Z,85.99
2023-03-13T12:00:44.646Z,86.67
2023-03-13T12:01:46.651Z,87.58
2023-03-13T12:02:44.813Z,87.88
2023-03-13T12:03:44.633Z,86.53
2023-03-13T12:04:44.700Z,86.43
2023-03-13T12:05:44.579Z,85.48
2023-03-13T12:06:44.647Z,85.14
2023-03-13T12:07:44.506Z,84.53
2023-03-13T12:08:44.537Z,84.87
2023-03-13T12:09:44.503Z,85.72
2023-03-13T12:10:44.505Z,86.43
2023-03-13T12:11:44.467Z,85.82
2023-03-13T12:12:44.477Z,86.13
2023-03-13T12:13:44.525Z,85.93
2023-03-13T12:14:44.419Z,86.67
2023-03-13T12:15:44.405Z,87.52
2023-03-13T12:16:44.485Z,88.27
2023-03-13T12:17:44.453Z,88.48
2023-03-13T12:18:44.450Z,88.98
2023-03-13T12:19:44.369Z,88.64
2023-03-13T12:20:44.379Z,88.33
2023-03-13T12:21:44.416Z,87.73
2023-03-13T12:22:44.325Z,87.73
2023-03-13T12:23:44.396Z,87.77
2023-03-13T12:24:44.286Z,87.52
2023-03-13T12:25:44.431Z,87.42
2023-03-13T12:26:44.304Z,87.62
2023-03-13T12:27:44.323Z,87.97
2023-03-13T12:28:44.640Z,87.32
2023-03-13T12:29:44.251Z,87.87
2023-03-13T12:30:44.271Z,87.97
2023-03-13T12:31:44.251Z,87.73
2023-03-13T12:32:44.297Z,86.91
2023-03-13T12:33:44.268Z,86.67
2023-03-13T12:34:44.217Z,86.41
2023-03-13T12:35:44.175Z,86.61
2023-03-13T12:36:44.188Z,86.51
2023-03-13T12:37:44.155Z,86.16
2023-03-13T12:38:44.316Z,86.57
2023-03-13T12:39:44.166Z,85.56
2023-03-13T12:40:44.127Z,85.66
2023-03-13T12:41:44.110Z,85.50
2023-03-13T12:42:44.113Z,86.31
2023-03-13T12:43:46.395Z,86.51
2023-03-13T12:44:45.104Z,86.21
2023-03-13T12:45:44.220Z,86.61
2023-03-13T12:46:44.119Z,86.91
2023-03-13T12:47:44.039Z,86.41
2023-03-13T12:48:44.113Z,85.05
2023-03-13T12:49:44.016Z,86.41
2023-03-13T12:50:44.013Z,85.56
2023-03-13T12:51:44.044Z,84.95
2023-03-13T12:52:44.037Z,84.95
2023-03-13T12:53:44.013Z,85.16